OAL090 LGAV-LGSK
Flight info
| Callsign | OAL090 |
|---|---|
| Flight time | 0h 23m |
| Altitude | 16000 |
| Route | ROPOX M749 SIGFO |
| Aircraft | A321/M-SDE3FGHIRWY/LB1 |
Departure
| Time | 2026-04-22 17:08 |
|---|---|
| Airport | Athens Eleftherios Venizelos International Airport (LGAV) |
Arrival
| Time | 2026-04-22 17:31 |
|---|---|
| Airport | Skiathos Island National Airport (LGSK) |
| Time | Latitude | Longitude | Altitude | Speed | Heading |
|---|---|---|---|---|---|
| 2026-04-22 16:50 | 37.94001 | 23.95334 | 302 ft | 0 kts | 39° |
| 2026-04-22 16:59 | 37.93991 | 23.95324 | 300 ft | 2 kts | 39° |
| 2026-04-22 17:00 | 37.93978 | 23.95311 | 301 ft | 2 kts | 39° |
| 2026-04-22 17:00 | 37.93953 | 23.95284 | 301 ft | 2 kts | 43° |
| 2026-04-22 17:00 | 37.93941 | 23.95269 | 300 ft | 2 kts | 96° |
| 2026-04-22 17:01 | 37.93950 | 23.95253 | 300 ft | 2 kts | 120° |
| 2026-04-22 17:01 | 37.93952 | 23.95247 | 300 ft | 0 kts | 129° |
| 2026-04-22 17:01 | 37.93945 | 23.95258 | 302 ft | 4 kts | 127° |
| 2026-04-22 17:02 | 37.93916 | 23.95308 | 302 ft | 11 kts | 127° |
| 2026-04-22 17:02 | 37.93852 | 23.95411 | 300 ft | 18 kts | 138° |
| 2026-04-22 17:02 | 37.93754 | 23.95380 | 300 ft | 16 kts | 218° |
| 2026-04-22 17:02 | 37.93662 | 23.95293 | 299 ft | 17 kts | 216° |
| 2026-04-22 17:03 | 37.93567 | 23.95203 | 297 ft | 17 kts | 217° |
| 2026-04-22 17:03 | 37.93471 | 23.95111 | 301 ft | 18 kts | 218° |
| 2026-04-22 17:03 | 37.93372 | 23.95016 | 300 ft | 18 kts | 218° |
| 2026-04-22 17:03 | 37.93269 | 23.94921 | 299 ft | 19 kts | 216° |
| 2026-04-22 17:04 | 37.93165 | 23.94821 | 301 ft | 19 kts | 218° |
| 2026-04-22 17:04 | 37.93058 | 23.94722 | 301 ft | 19 kts | 216° |
| 2026-04-22 17:04 | 37.92948 | 23.94619 | 301 ft | 20 kts | 217° |
| 2026-04-22 17:04 | 37.92838 | 23.94512 | 303 ft | 20 kts | 217° |
| 2026-04-22 17:05 | 37.92725 | 23.94406 | 303 ft | 20 kts | 216° |
| 2026-04-22 17:05 | 37.92620 | 23.94304 | 304 ft | 13 kts | 218° |
| 2026-04-22 17:05 | 37.92557 | 23.94243 | 306 ft | 12 kts | 217° |
| 2026-04-22 17:05 | 37.92487 | 23.94177 | 303 ft | 12 kts | 217° |
| 2026-04-22 17:06 | 37.92423 | 23.94174 | 304 ft | 8 kts | 131° |
| 2026-04-22 17:06 | 37.92415 | 23.94197 | 304 ft | 0 kts | 107° |
| 2026-04-22 17:06 | 37.92412 | 23.94223 | 305 ft | 7 kts | 96° |
| 2026-04-22 17:06 | 37.92409 | 23.94313 | 308 ft | 12 kts | 92° |
| 2026-04-22 17:07 | 37.92429 | 23.94398 | 309 ft | 2 kts | 36° |
| 2026-04-22 17:07 | 37.92433 | 23.94402 | 309 ft | 2 kts | 37° |
| 2026-04-22 17:07 | 37.92540 | 23.94504 | 307 ft | 51 kts | 37° |
| 2026-04-22 17:07 | 37.93025 | 23.94965 | 299 ft | 121 kts | 37° |
| 2026-04-22 17:08 | 37.93855 | 23.95752 | 295 ft | 173 kts | 37° |
| 2026-04-22 17:08 | 37.94830 | 23.96679 | 995 ft | 174 kts | 38° |
| 2026-04-22 17:08 | 37.95798 | 23.97603 | 1740 ft | 175 kts | 38° |
| 2026-04-22 17:08 | 37.96769 | 23.98537 | 2386 ft | 176 kts | 37° |
| 2026-04-22 17:09 | 37.97753 | 23.99485 | 2925 ft | 178 kts | 36° |
| 2026-04-22 17:09 | 37.98745 | 24.00440 | 3464 ft | 181 kts | 36° |
| 2026-04-22 17:09 | 37.99428 | 24.01095 | 3689 ft | 193 kts | 34° |
| 2026-04-22 17:09 | 38.00951 | 24.02551 | 4003 ft | 221 kts | 35° |
| 2026-04-22 17:10 | 38.02241 | 24.03786 | 4197 ft | 244 kts | 34° |
| 2026-04-22 17:10 | 38.03725 | 24.05000 | 4419 ft | 265 kts | 18° |
| 2026-04-22 17:10 | 38.05550 | 24.05315 | 4978 ft | 267 kts | 349° |
| 2026-04-22 17:10 | 38.07327 | 24.04674 | 5707 ft | 266 kts | 338° |
| 2026-04-22 17:11 | 38.09085 | 24.03893 | 6484 ft | 268 kts | 338° |
| 2026-04-22 17:11 | 38.10851 | 24.03100 | 7199 ft | 271 kts | 338° |
| 2026-04-22 17:11 | 38.12635 | 24.02295 | 7919 ft | 273 kts | 337° |
| 2026-04-22 17:11 | 38.14409 | 24.01490 | 8638 ft | 275 kts | 337° |
| 2026-04-22 17:12 | 38.16221 | 24.00667 | 9374 ft | 278 kts | 337° |
| 2026-04-22 17:12 | 38.18049 | 23.99837 | 10082 ft | 280 kts | 336° |
| 2026-04-22 17:12 | 38.19942 | 23.98977 | 10364 ft | 300 kts | 337° |
| 2026-04-22 17:12 | 38.21978 | 23.98052 | 10498 ft | 322 kts | 337° |
| 2026-04-22 17:13 | 38.24155 | 23.97067 | 10631 ft | 342 kts | 337° |
| 2026-04-22 17:13 | 38.26439 | 23.96038 | 11002 ft | 352 kts | 337° |
| 2026-04-22 17:13 | 38.28767 | 23.94992 | 11590 ft | 356 kts | 338° |
| 2026-04-22 17:13 | 38.31114 | 23.93938 | 11914 ft | 358 kts | 338° |
| 2026-04-22 17:14 | 38.33452 | 23.92889 | 11996 ft | 368 kts | 338° |
| 2026-04-22 17:14 | 38.35927 | 23.91769 | 12006 ft | 385 kts | 338° |
| 2026-04-22 17:14 | 38.38469 | 23.90613 | 12005 ft | 390 kts | 337° |
| 2026-04-22 17:14 | 38.41032 | 23.89448 | 12002 ft | 391 kts | 338° |
| 2026-04-22 17:15 | 38.42730 | 23.88678 | 12002 ft | 392 kts | 338° |
| 2026-04-22 17:15 | 38.46168 | 23.87123 | 12009 ft | 392 kts | 337° |
| 2026-04-22 17:15 | 38.48738 | 23.85961 | 12005 ft | 392 kts | 338° |
| 2026-04-22 17:15 | 38.51310 | 23.84796 | 12007 ft | 392 kts | 337° |
| 2026-04-22 17:16 | 38.53880 | 23.83627 | 12012 ft | 392 kts | 337° |
| 2026-04-22 17:16 | 38.56448 | 23.82455 | 12011 ft | 392 kts | 337° |
| 2026-04-22 17:16 | 38.58982 | 23.81300 | 12012 ft | 392 kts | 337° |
| 2026-04-22 17:16 | 38.61548 | 23.80130 | 12014 ft | 392 kts | 338° |
| 2026-04-22 17:17 | 38.64103 | 23.78968 | 12012 ft | 384 kts | 337° |
| 2026-04-22 17:17 | 38.66556 | 23.77854 | 11761 ft | 368 kts | 337° |
| 2026-04-22 17:17 | 38.68946 | 23.76764 | 11143 ft | 362 kts | 337° |
| 2026-04-22 17:17 | 38.71308 | 23.75681 | 10452 ft | 359 kts | 337° |
| 2026-04-22 17:18 | 38.73645 | 23.74607 | 9862 ft | 354 kts | 337° |
| 2026-04-22 17:18 | 38.75908 | 23.73572 | 9729 ft | 336 kts | 337° |
| 2026-04-22 17:18 | 38.78027 | 23.72606 | 9595 ft | 319 kts | 337° |
| 2026-04-22 17:18 | 38.80066 | 23.71674 | 9465 ft | 304 kts | 337° |
| 2026-04-22 17:19 | 38.83882 | 23.69930 | 9157 ft | 280 kts | 336° |
| 2026-04-22 17:19 | 38.87505 | 23.68260 | 8426 ft | 275 kts | 336° |
| 2026-04-22 17:20 | 38.91080 | 23.66607 | 7644 ft | 272 kts | 337° |
| 2026-04-22 17:20 | 38.94649 | 23.65094 | 6889 ft | 272 kts | 346° |
| 2026-04-22 17:21 | 38.96523 | 23.64783 | 6637 ft | 271 kts | 351° |
| 2026-04-22 17:21 | 39.00293 | 23.64226 | 6364 ft | 274 kts | 350° |
| 2026-04-22 17:22 | 39.04075 | 23.63662 | 6107 ft | 273 kts | 351° |
| 2026-04-22 17:22 | 39.05963 | 23.63382 | 5916 ft | 272 kts | 351° |
| 2026-04-22 17:22 | 39.09712 | 23.62828 | 5505 ft | 271 kts | 351° |
| 2026-04-22 17:23 | 39.11545 | 23.62557 | 5305 ft | 264 kts | 351° |
| 2026-04-22 17:23 | 39.15098 | 23.62128 | 4912 ft | 250 kts | 4° |
| 2026-04-22 17:23 | 39.16718 | 23.62829 | 4699 ft | 246 kts | 32° |
| 2026-04-22 17:24 | 39.17866 | 23.64411 | 4493 ft | 243 kts | 62° |
| 2026-04-22 17:24 | 39.18297 | 23.66494 | 4295 ft | 242 kts | 86° |
| 2026-04-22 17:24 | 39.18337 | 23.68666 | 4107 ft | 242 kts | 98° |
| 2026-04-22 17:24 | 39.17717 | 23.70611 | 4008 ft | 240 kts | 131° |
| 2026-04-22 17:25 | 39.16390 | 23.71846 | 4014 ft | 238 kts | 163° |
| 2026-04-22 17:25 | 39.14766 | 23.71990 | 4016 ft | 234 kts | 197° |
| 2026-04-22 17:25 | 39.13366 | 23.71016 | 4016 ft | 230 kts | 227° |
| 2026-04-22 17:25 | 39.12326 | 23.69467 | 3866 ft | 228 kts | 234° |
| 2026-04-22 17:26 | 39.11412 | 23.67789 | 3745 ft | 229 kts | 242° |
| 2026-04-22 17:26 | 39.10923 | 23.66623 | 3651 ft | 229 kts | 244° |
| 2026-04-22 17:26 | 39.10210 | 23.64787 | 3535 ft | 230 kts | 245° |
| 2026-04-22 17:26 | 39.09508 | 23.62937 | 3427 ft | 228 kts | 245° |
| 2026-04-22 17:27 | 39.08832 | 23.61145 | 3187 ft | 219 kts | 245° |
| 2026-04-22 17:27 | 39.08189 | 23.59447 | 2958 ft | 208 kts | 245° |
| 2026-04-22 17:27 | 39.07571 | 23.57813 | 2670 ft | 199 kts | 246° |
| 2026-04-22 17:27 | 39.07048 | 23.56194 | 2415 ft | 191 kts | 255° |
| 2026-04-22 17:28 | 39.06799 | 23.54564 | 2219 ft | 181 kts | 266° |
| 2026-04-22 17:28 | 39.06799 | 23.52975 | 2063 ft | 177 kts | 278° |
| 2026-04-22 17:28 | 39.07099 | 23.51447 | 1928 ft | 176 kts | 293° |
| 2026-04-22 17:28 | 39.07693 | 23.50069 | 1778 ft | 176 kts | 308° |
| 2026-04-22 17:29 | 39.08522 | 23.48958 | 1628 ft | 166 kts | 323° |
| 2026-04-22 17:29 | 39.09438 | 23.48184 | 1511 ft | 154 kts | 335° |
| 2026-04-22 17:29 | 39.10417 | 23.47691 | 1364 ft | 148 kts | 349° |
| 2026-04-22 17:29 | 39.11427 | 23.47634 | 1174 ft | 144 kts | 11° |
| 2026-04-22 17:30 | 39.12370 | 23.47986 | 967 ft | 140 kts | 23° |
| 2026-04-22 17:30 | 39.13279 | 23.48405 | 743 ft | 138 kts | 23° |
| 2026-04-22 17:30 | 39.14183 | 23.48804 | 531 ft | 136 kts | 20° |
| 2026-04-22 17:30 | 39.15075 | 23.49202 | 369 ft | 135 kts | 21° |
| 2026-04-22 17:31 | 39.15957 | 23.49581 | 201 ft | 135 kts | 22° |
| 2026-04-22 17:31 | 39.16861 | 23.49987 | 46 ft | 136 kts | 20° |
| 2026-04-22 17:31 | 39.17655 | 23.50343 | 39 ft | 93 kts | 19° |
| 2026-04-22 17:31 | 39.17947 | 23.50483 | 43 ft | 6 kts | 42° |
| 2026-04-22 17:32 | 39.17957 | 23.50473 | 44 ft | 3 kts | 268° |
| 2026-04-22 17:32 | 39.17935 | 23.50420 | 42 ft | 9 kts | 245° |
| 2026-04-22 17:32 | 39.17906 | 23.50340 | 41 ft | 10 kts | 233° |
| 2026-04-22 17:32 | 39.17842 | 23.50308 | 39 ft | 10 kts | 199° |
| 2026-04-22 17:33 | 39.17820 | 23.50274 | 39 ft | 6 kts | 275° |
| 2026-04-22 17:33 | 39.17836 | 23.50213 | 39 ft | 4 kts | 289° |
| 2026-04-22 17:33 | 39.17838 | 23.50204 | 39 ft | 0 kts | 289° |
| 2026-04-22 17:38 | 39.17838 | 23.50205 | 39 ft | 0 kts | 289° |